createdAt,value
2022-08-24T00:02:30.014Z,6.23
2022-08-24T00:05:21.070Z,6.37
2022-08-24T00:08:09.669Z,6.67
2022-08-24T00:10:59.626Z,6.23
2022-08-24T00:13:48.370Z,7.13
2022-08-24T00:16:37.035Z,6.27
2022-08-24T00:19:28.132Z,5.70
2022-08-24T00:22:16.602Z,6.57
2022-08-24T00:25:05.603Z,6.70
2022-08-24T00:27:54.373Z,6.40
2022-08-24T00:30:43.138Z,7.10
2022-08-24T00:33:31.647Z,6.70
2022-08-24T00:36:22.290Z,7.30
2022-08-24T00:39:11.227Z,6.80
2022-08-24T00:42:00.292Z,7.00
2022-08-24T00:44:48.838Z,6.70
2022-08-24T00:47:47.691Z,6.40
2022-08-24T00:50:39.648Z,6.03
2022-08-24T00:53:32.716Z,7.10
2022-08-24T00:56:26.610Z,6.40
2022-08-24T00:59:18.549Z,6.50
2022-08-24T01:02:15.560Z,6.10
2022-08-24T01:05:08.451Z,6.77
2022-08-24T01:07:57.060Z,6.47
2022-08-24T01:10:49.151Z,6.00
2022-08-24T01:13:37.678Z,6.00
2022-08-24T01:16:43.971Z,6.77
2022-08-24T01:19:38.485Z,6.50
2022-08-24T01:22:50.898Z,6.23
2022-08-24T01:25:43.731Z,6.77
2022-08-24T01:28:32.484Z,6.23
2022-08-24T01:31:22.204Z,6.33
2022-08-24T01:34:11.158Z,6.20
2022-08-24T01:37:00.337Z,6.90
2022-08-24T01:39:51.147Z,6.43
2022-08-24T01:42:41.105Z,6.93
2022-08-24T01:45:30.782Z,7.40
2022-08-24T01:48:23.036Z,6.60
2022-08-24T01:51:11.943Z,6.13
2022-08-24T01:54:02.805Z,6.30
2022-08-24T01:56:51.622Z,5.90
2022-08-24T01:59:42.316Z,6.20
2022-08-24T02:02:32.186Z,6.20
2022-08-24T02:05:20.929Z,6.13
2022-08-24T02:08:09.464Z,6.00
2022-08-24T02:10:58.028Z,5.97
2022-08-24T02:13:47.407Z,5.43
2022-08-24T02:16:38.496Z,5.83
2022-08-24T02:19:27.620Z,5.97
2022-08-24T02:22:16.299Z,6.43
2022-08-24T02:25:05.308Z,6.13
2022-08-24T02:27:53.863Z,6.23
2022-08-24T02:30:42.438Z,5.53
2022-08-24T02:33:32.296Z,5.30
2022-08-24T02:36:25.923Z,6.17
2022-08-24T02:39:14.969Z,5.87
2022-08-24T02:42:03.504Z,6.00
2022-08-24T02:44:52.516Z,6.33
2022-08-24T02:47:42.480Z,5.80
2022-08-24T02:50:32.452Z,5.43
2022-08-24T02:53:22.927Z,6.00
2022-08-24T02:56:11.764Z,6.80
2022-08-24T02:59:01.129Z,5.80
2022-08-24T03:01:50.009Z,6.33
2022-08-24T03:04:38.836Z,7.17
2022-08-24T03:07:29.046Z,6.23
2022-08-24T03:10:17.649Z,5.40
2022-08-24T03:13:07.539Z,7.20
2022-08-24T03:15:56.417Z,6.57
2022-08-24T03:18:45.050Z,5.97
2022-08-24T03:21:34.115Z,6.60
2022-08-24T03:24:24.006Z,6.53
2022-08-24T03:27:12.555Z,6.00
2022-08-24T03:30:01.542Z,6.10
2022-08-24T03:32:50.201Z,6.37
2022-08-24T03:35:39.014Z,6.10
2022-08-24T03:38:28.307Z,6.67
2022-08-24T03:41:18.180Z,6.47
2022-08-24T03:44:06.878Z,6.03
2022-08-24T03:46:55.387Z,6.70
2022-08-24T03:49:44.131Z,6.40
2022-08-24T03:52:34.016Z,6.50
2022-08-24T03:55:24.706Z,6.27
2022-08-24T03:58:14.983Z,6.30
2022-08-24T04:01:04.292Z,5.77
2022-08-24T04:03:53.950Z,5.87
2022-08-24T04:06:44.577Z,5.93
2022-08-24T04:09:33.233Z,6.57
2022-08-24T04:12:23.346Z,6.10
2022-08-24T04:15:13.716Z,5.90
2022-08-24T04:18:04.615Z,6.13
2022-08-24T04:20:53.587Z,6.77
2022-08-24T04:23:46.877Z,6.50
2022-08-24T04:26:45.132Z,6.90
2022-08-24T04:29:34.529Z,5.70
2022-08-24T04:32:24.454Z,6.27
2022-08-24T04:35:13.399Z,7.17
2022-08-24T04:38:01.943Z,6.60
2022-08-24T04:40:51.648Z,6.63
2022-08-24T04:43:42.795Z,7.43
2022-08-24T04:46:31.561Z,5.93
2022-08-24T04:49:21.651Z,6.83
2022-08-24T04:52:10.333Z,6.83
2022-08-24T04:54:58.887Z,6.33
2022-08-24T04:57:47.391Z,6.87
2022-08-24T05:00:35.949Z,7.03
2022-08-24T05:03:25.087Z,6.97
2022-08-24T05:06:16.252Z,6.47
2022-08-24T05:09:06.258Z,6.70
2022-08-24T05:11:55.594Z,6.13
2022-08-24T05:14:44.087Z,7.50
2022-08-24T05:17:32.625Z,6.00
2022-08-24T05:20:21.355Z,6.60
2022-08-24T05:23:11.656Z,6.87
2022-08-24T05:26:07.007Z,6.90
2022-08-24T05:28:56.216Z,6.87
2022-08-24T05:31:46.235Z,7.13
2022-08-24T05:34:35.267Z,6.87
2022-08-24T05:37:24.604Z,6.80
2022-08-24T05:40:17.445Z,7.87
2022-08-24T05:43:06.137Z,7.47
2022-08-24T05:45:54.666Z,6.33
2022-08-24T05:48:43.224Z,6.57
2022-08-24T05:51:42.516Z,6.30
2022-08-24T05:54:31.073Z,6.27
2022-08-24T05:57:21.062Z,6.63
2022-08-24T06:00:11.688Z,6.30
2022-08-24T06:03:00.481Z,6.37
2022-08-24T06:05:53.042Z,6.33
2022-08-24T06:08:44.246Z,6.40
2022-08-24T06:11:35.099Z,6.00
2022-08-24T06:14:27.024Z,6.70
2022-08-24T06:17:15.849Z,5.77
2022-08-24T06:20:05.170Z,6.53
2022-08-24T06:22:53.675Z,6.00
2022-08-24T06:25:59.655Z,6.70
2022-08-24T06:28:48.237Z,6.30
2022-08-24T06:31:40.099Z,6.27
2022-08-24T06:34:30.617Z,6.10
2022-08-24T06:37:19.310Z,6.23
2022-08-24T06:40:10.445Z,6.00
2022-08-24T06:43:03.373Z,5.90
2022-08-24T06:45:52.161Z,6.20
2022-08-24T06:48:42.618Z,5.90
2022-08-24T06:51:31.814Z,6.60
2022-08-24T06:54:20.960Z,5.70
2022-08-24T06:57:09.947Z,6.37
2022-08-24T06:59:58.952Z,5.87
2022-08-24T07:02:47.483Z,6.20
2022-08-24T07:05:37.560Z,5.50
2022-08-24T07:08:28.342Z,5.33
2022-08-24T07:11:18.599Z,6.13
2022-08-24T07:14:10.149Z,5.47
2022-08-24T07:16:58.835Z,5.30
2022-08-24T07:19:47.496Z,5.27
2022-08-24T07:22:37.474Z,4.60
2022-08-24T07:25:25.981Z,5.50
2022-08-24T07:28:15.047Z,5.63
2022-08-24T07:31:03.777Z,4.57
2022-08-24T07:33:52.454Z,4.43
2022-08-24T07:36:44.493Z,4.70
2022-08-24T07:39:34.669Z,4.87
2022-08-24T07:42:29.695Z,4.27
2022-08-24T07:45:22.397Z,4.73
2022-08-24T07:48:12.822Z,4.17
2022-08-24T07:51:08.518Z,4.00
2022-08-24T07:53:57.119Z,4.30
2022-08-24T07:56:47.179Z,4.80
2022-08-24T07:59:35.905Z,4.30
2022-08-24T08:02:25.050Z,4.70
2022-08-24T08:05:22.557Z,4.20
2022-08-24T08:08:11.995Z,4.83
2022-08-24T08:11:01.947Z,4.30
2022-08-24T08:13:51.890Z,4.33
2022-08-24T08:16:40.529Z,5.03
2022-08-24T08:19:29.267Z,4.50
2022-08-24T08:22:35.592Z,4.60
2022-08-24T08:25:24.312Z,4.33
2022-08-24T08:28:24.926Z,3.80
2022-08-24T08:31:16.102Z,4.03
2022-08-24T08:34:05.142Z,4.40
2022-08-24T08:36:54.460Z,4.13
2022-08-24T08:39:43.691Z,4.20
2022-08-24T08:42:40.621Z,4.40
2022-08-24T08:45:35.355Z,3.83
2022-08-24T08:48:49.306Z,3.73
2022-08-24T08:52:16.113Z,3.80
2022-08-24T08:55:14.680Z,4.40
2022-08-24T08:58:20.080Z,4.00
2022-08-24T09:01:16.914Z,4.27
2022-08-24T09:04:21.223Z,3.53
2022-08-24T09:07:22.446Z,3.60
2022-08-24T09:10:21.792Z,3.47
2022-08-24T09:13:24.537Z,3.27
2022-08-24T09:16:29.587Z,3.03
2022-08-24T09:19:32.271Z,2.87
2022-08-24T09:22:22.082Z,3.23
2022-08-24T09:25:26.649Z,3.80
2022-08-24T09:28:22.156Z,3.90
2022-08-24T09:31:36.437Z,4.00
2022-08-24T09:34:36.558Z,3.57
2022-08-24T09:37:33.311Z,2.90
2022-08-24T09:40:36.515Z,2.70
2022-08-24T09:44:09.658Z,2.70
2022-08-24T09:47:38.899Z,2.77
2022-08-24T09:50:44.048Z,2.83
2022-08-24T09:54:09.627Z,3.30
2022-08-24T09:57:13.276Z,2.50
2022-08-24T10:00:12.205Z,2.10
2022-08-24T10:03:08.242Z,2.53
2022-08-24T10:06:19.387Z,2.20
2022-08-24T10:09:24.084Z,2.10
2022-08-24T10:12:21.014Z,2.20
2022-08-24T10:15:12.160Z,1.93
2022-08-24T10:18:12.998Z,1.70
2022-08-24T10:21:20.127Z,1.83
2022-08-24T10:24:20.802Z,2.03
2022-08-24T10:27:27.955Z,1.80
2022-08-24T10:30:48.653Z,1.97
2022-08-24T10:33:44.499Z,2.17
2022-08-24T10:36:50.113Z,2.50
2022-08-24T10:40:20.158Z,2.00
2022-08-24T10:43:36.582Z,2.00
2022-08-24T10:46:49.473Z,2.20
2022-08-24T10:50:15.115Z,2.43
2022-08-24T10:53:19.950Z,2.00
2022-08-24T10:56:11.370Z,1.97
2022-08-24T10:59:08.809Z,1.90
2022-08-24T11:02:03.413Z,2.27
2022-08-24T11:05:03.632Z,2.57
2022-08-24T11:07:58.693Z,3.33
2022-08-24T11:11:06.756Z,2.13
2022-08-24T11:13:59.170Z,2.17
2022-08-24T11:16:48.584Z,2.60
2022-08-24T11:19:37.281Z,2.33
2022-08-24T11:22:40.645Z,1.97
2022-08-24T11:25:32.082Z,2.70
2022-08-24T11:28:26.643Z,3.03
2022-08-24T11:31:21.973Z,2.40
2022-08-24T11:34:14.507Z,2.40
2022-08-24T11:37:03.483Z,2.70
2022-08-24T11:39:52.195Z,2.60
2022-08-24T11:42:52.424Z,3.17
2022-08-24T11:45:46.550Z,2.27
2022-08-24T11:48:43.908Z,2.70
2022-08-24T11:51:38.373Z,2.70
2022-08-24T11:54:31.944Z,2.87
2022-08-24T11:57:23.500Z,3.10
2022-08-24T12:00:18.614Z,2.23
2022-08-24T12:03:17.169Z,3.00
2022-08-24T12:06:14.634Z,3.37
2022-08-24T12:09:08.984Z,2.70
2022-08-24T12:12:01.361Z,2.70
2022-08-24T12:14:55.023Z,3.00
2022-08-24T12:17:49.945Z,2.30
2022-08-24T12:20:43.763Z,2.60
2022-08-24T12:23:39.505Z,2.83
2022-08-24T12:26:31.302Z,2.83
2022-08-24T12:29:29.441Z,3.10
2022-08-24T12:32:20.629Z,2.80
2022-08-24T12:35:12.442Z,2.37
2022-08-24T12:38:08.268Z,2.57
2022-08-24T12:40:58.395Z,2.43
2022-08-24T12:43:51.199Z,2.70
2022-08-24T12:46:43.042Z,2.27
2022-08-24T12:49:33.845Z,2.60
2022-08-24T12:52:57.807Z,2.40
2022-08-24T12:56:14.667Z,2.50
2022-08-24T12:59:07.673Z,2.73
2022-08-24T13:02:02.777Z,2.13
2022-08-24T13:04:57.904Z,2.70
2022-08-24T13:07:48.266Z,2.20
2022-08-24T13:10:42.242Z,2.63
2022-08-24T13:13:47.847Z,2.40
2022-08-24T13:17:10.737Z,3.00
2022-08-24T13:20:19.459Z,2.40
2022-08-24T13:23:16.483Z,2.83
2022-08-24T13:26:24.254Z,2.53
2022-08-24T13:29:15.825Z,2.90
2022-08-24T13:32:04.657Z,2.63
2022-08-24T13:34:53.616Z,2.50
2022-08-24T13:37:42.632Z,2.37
2022-08-24T13:40:31.808Z,2.50
2022-08-24T13:43:24.595Z,2.73
2022-08-24T13:46:20.213Z,2.43
2022-08-24T13:49:22.624Z,2.20
2022-08-24T13:52:18.123Z,2.20
2022-08-24T13:55:23.336Z,2.20
2022-08-24T13:58:20.641Z,2.30
2022-08-24T14:01:29.132Z,2.30
2022-08-24T14:04:32.890Z,2.30
2022-08-24T14:07:23.797Z,2.20
2022-08-24T14:10:16.025Z,3.10
2022-08-24T14:13:16.057Z,2.37
2022-08-24T14:16:28.986Z,2.57
2022-08-24T14:19:21.709Z,2.20
2022-08-24T14:22:19.429Z,2.50
2022-08-24T14:25:20.987Z,2.60
2022-08-24T14:28:36.429Z,2.53
2022-08-24T14:31:29.491Z,2.57
2022-08-24T14:34:28.421Z,2.40
2022-08-24T14:37:22.507Z,2.00
2022-08-24T14:40:18.588Z,2.53
2022-08-24T14:43:28.517Z,2.60
2022-08-24T14:46:25.340Z,3.00
2022-08-24T14:49:25.683Z,2.60
2022-08-24T14:52:25.133Z,2.10
2022-08-24T14:55:21.621Z,2.50
2022-08-24T14:58:18.952Z,2.60
2022-08-24T15:01:40.476Z,2.10
2022-08-24T15:04:39.852Z,2.27
2022-08-24T15:07:31.243Z,1.80
2022-08-24T15:10:24.837Z,2.33
2022-08-24T15:13:21.702Z,2.20
2022-08-24T15:16:13.152Z,2.03
2022-08-24T15:19:06.904Z,2.20
2022-08-24T15:22:01.833Z,1.80
2022-08-24T15:24:56.352Z,2.50
2022-08-24T15:27:51.803Z,2.10
2022-08-24T15:30:42.230Z,2.00
2022-08-24T15:33:31.714Z,1.70
2022-08-24T15:36:20.863Z,1.90
2022-08-24T15:39:10.895Z,1.90
2022-08-24T15:42:00.751Z,1.83
2022-08-24T15:44:50.504Z,2.00
2022-08-24T15:47:41.030Z,1.83
2022-08-24T15:50:33.513Z,1.80
2022-08-24T15:53:35.366Z,1.97
2022-08-24T15:56:35.807Z,3.17
2022-08-24T15:59:29.866Z,1.90
2022-08-24T16:02:29.043Z,2.23
2022-08-24T16:05:21.759Z,2.13
2022-08-24T16:08:13.294Z,2.00
2022-08-24T16:11:10.346Z,2.80
2022-08-24T16:14:00.634Z,2.20
2022-08-24T16:16:54.512Z,2.10
2022-08-24T16:19:51.194Z,2.00
2022-08-24T16:22:58.575Z,2.50
2022-08-24T16:25:51.328Z,2.10
2022-08-24T16:28:40.101Z,2.20
2022-08-24T16:31:48.085Z,1.93
2022-08-24T16:34:36.743Z,2.27
2022-08-24T16:37:25.376Z,2.17
2022-08-24T16:40:14.123Z,1.90
2022-08-24T16:43:03.244Z,2.10
2022-08-24T16:45:51.812Z,2.90
2022-08-24T16:48:41.884Z,2.20
2022-08-24T16:51:30.412Z,2.30
2022-08-24T16:54:19.611Z,2.60
2022-08-24T16:57:13.802Z,2.20
2022-08-24T17:00:04.771Z,1.97
2022-08-24T17:02:53.383Z,2.63
2022-08-24T17:05:43.872Z,2.80
2022-08-24T17:08:32.579Z,2.10
2022-08-24T17:11:21.174Z,2.20
2022-08-24T17:14:10.391Z,2.03
2022-08-24T17:16:59.324Z,2.10
2022-08-24T17:19:49.468Z,2.00
2022-08-24T17:22:39.739Z,2.00
2022-08-24T17:25:30.051Z,2.60
2022-08-24T17:28:19.819Z,3.90
2022-08-24T17:31:08.447Z,2.50
2022-08-24T17:33:56.995Z,3.03
2022-08-24T17:36:46.251Z,2.00
2022-08-24T17:39:36.569Z,2.43
2022-08-24T17:42:49.470Z,2.40
2022-08-24T17:45:34.863Z,2.33
2022-08-24T17:48:26.410Z,2.47
2022-08-24T17:51:15.915Z,2.30
2022-08-24T17:54:04.709Z,2.23
2022-08-24T17:56:54.999Z,2.00
2022-08-24T17:59:44.027Z,2.10
2022-08-24T18:02:32.556Z,1.97
2022-08-24T18:05:21.452Z,6.43
2022-08-24T18:08:10.323Z,4.63
2022-08-24T18:10:59.453Z,2.80
2022-08-24T18:13:49.394Z,2.50
2022-08-24T18:16:38.090Z,1.97
2022-08-24T18:19:26.780Z,2.50
2022-08-24T18:22:15.840Z,2.10
2022-08-24T18:25:05.319Z,2.20
2022-08-24T18:28:03.142Z,2.53
2022-08-24T18:30:56.987Z,2.37
2022-08-24T18:33:45.670Z,2.10
2022-08-24T18:36:34.514Z,2.10
2022-08-24T18:39:23.492Z,2.67
2022-08-24T18:42:12.827Z,2.30
2022-08-24T18:45:03.280Z,2.53
2022-08-24T18:47:53.630Z,2.47
2022-08-24T18:50:42.383Z,2.77
2022-08-24T18:53:31.170Z,2.50
2022-08-24T18:56:20.031Z,3.03
2022-08-24T18:59:09.530Z,2.80
2022-08-24T19:02:16.401Z,2.80
2022-08-24T19:05:10.763Z,24.10
2022-08-24T19:08:07.380Z,7.70
2022-08-24T19:10:56.515Z,4.20
2022-08-24T19:13:46.237Z,2.97
2022-08-24T19:16:34.873Z,2.40
2022-08-24T19:19:23.518Z,2.93
2022-08-24T19:22:13.436Z,3.13
2022-08-24T19:25:04.198Z,3.53
2022-08-24T19:27:54.869Z,2.73
2022-08-24T19:30:44.530Z,3.00
2022-08-24T19:33:35.812Z,2.90
2022-08-24T19:36:24.370Z,3.13
2022-08-24T19:39:14.402Z,2.70
2022-08-24T19:42:05.447Z,2.60
2022-08-24T19:45:12.155Z,2.97
2022-08-24T19:48:00.755Z,2.50
2022-08-24T19:50:49.302Z,2.80
2022-08-24T19:53:38.816Z,3.00
2022-08-24T19:56:30.197Z,2.80
2022-08-24T19:59:21.163Z,2.43
2022-08-24T20:02:09.932Z,2.70
2022-08-24T20:04:59.371Z,2.83
2022-08-24T20:07:48.379Z,2.60
2022-08-24T20:10:37.386Z,3.07
2022-08-24T20:13:27.765Z,2.80
2022-08-24T20:16:18.092Z,2.90
2022-08-24T20:19:07.012Z,2.70
2022-08-24T20:21:55.647Z,2.77
2022-08-24T20:24:44.946Z,3.10
2022-08-24T20:27:33.612Z,2.80
2022-08-24T20:30:24.518Z,2.97
2022-08-24T20:33:15.273Z,3.43
2022-08-24T20:36:04.717Z,3.03
2022-08-24T20:38:54.144Z,2.90
2022-08-24T20:41:45.341Z,2.70
2022-08-24T20:44:34.007Z,3.40
2022-08-24T20:47:24.405Z,3.40
2022-08-24T20:50:13.037Z,3.40
2022-08-24T20:53:01.616Z,3.10
2022-08-24T20:55:50.336Z,2.70
2022-08-24T20:58:39.830Z,3.60
2022-08-24T21:01:28.438Z,2.90
2022-08-24T21:04:18.504Z,3.37
2022-08-24T21:07:10.368Z,2.80
2022-08-24T21:09:59.455Z,3.00
2022-08-24T21:12:50.044Z,3.10
2022-08-24T21:15:39.378Z,2.70
2022-08-24T21:18:28.013Z,3.00
2022-08-24T21:21:17.926Z,3.50
2022-08-24T21:24:07.772Z,3.47
2022-08-24T21:26:56.716Z,2.97
2022-08-24T21:29:45.427Z,2.80
2022-08-24T21:32:51.863Z,3.00
2022-08-24T21:35:41.300Z,3.50
2022-08-24T21:38:31.349Z,3.03
2022-08-24T21:41:20.149Z,2.67
2022-08-24T21:44:08.753Z,2.47
2022-08-24T21:46:57.868Z,3.43
2022-08-24T21:49:46.526Z,2.70
2022-08-24T21:52:35.124Z,2.70
2022-08-24T21:55:25.880Z,3.50
2022-08-24T21:58:14.483Z,5.07
2022-08-24T22:01:03.255Z,3.00
2022-08-24T22:03:51.862Z,3.10
2022-08-24T22:06:40.608Z,3.13
2022-08-24T22:09:29.448Z,3.00
2022-08-24T22:12:19.635Z,2.87
2022-08-24T22:15:12.594Z,3.20
2022-08-24T22:18:03.650Z,3.07
2022-08-24T22:20:52.238Z,2.73
2022-08-24T22:23:40.899Z,3.30
2022-08-24T22:26:30.594Z,3.07
2022-08-24T22:29:20.475Z,2.63
2022-08-24T22:32:09.231Z,3.03
2022-08-24T22:34:57.841Z,3.43
2022-08-24T22:37:46.295Z,2.80
2022-08-24T22:40:35.007Z,2.83
2022-08-24T22:43:25.456Z,3.17
2022-08-24T22:46:15.813Z,3.67
2022-08-24T22:49:06.131Z,3.40
2022-08-24T22:51:54.853Z,3.50
2022-08-24T22:54:44.063Z,3.50
2022-08-24T22:57:33.060Z,2.97
2022-08-24T23:00:22.813Z,3.17
2022-08-24T23:03:12.743Z,3.40
2022-08-24T23:06:01.254Z,2.80
2022-08-24T23:08:49.953Z,3.20
2022-08-24T23:11:39.069Z,3.33
2022-08-24T23:14:27.605Z,3.90
2022-08-24T23:17:16.192Z,3.33
2022-08-24T23:20:08.334Z,3.63
2022-08-24T23:22:56.876Z,3.10
2022-08-24T23:25:45.442Z,3.77
2022-08-24T23:28:33.999Z,3.47
2022-08-24T23:31:23.166Z,3.60
2022-08-24T23:34:11.963Z,3.20
2022-08-24T23:37:02.637Z,3.53
2022-08-24T23:39:51.364Z,3.20
2022-08-24T23:42:40.019Z,3.40
2022-08-24T23:45:30.589Z,3.10
2022-08-24T23:48:19.251Z,3.33
2022-08-24T23:51:09.537Z,3.10
2022-08-24T23:53:59.415Z,3.30
2022-08-24T23:56:49.018Z,3.33
2022-08-24T23:59:37.603Z,3.10
